Time;durP1;ratioP1;P1;durP2;ratioP2;P2;SDS_P1;SDS_P2;PMS_P1;PMS_P2;Temp;Humidity;BMP_temperature;BMP_pressure;BME280_temperature;BME280_humidity;BME280_pressure;Samples;Min_cycle;Max_cycle;Signal;HPM_P1;HPM_P2
2023/06/29 00:02:42;;;;;;;26.10;22.52;;;19.00;99.90;;;;;;5011515;28;20046;-86
2023/06/29 00:05:41;;;;;;;27.67;24.58;;;19.00;99.90;;;;;;5008506;28;20073;-84
2023/06/29 00:08:35;;;;;;;26.58;23.73;;;19.00;99.90;;;;;;5019228;28;20054;-85
2023/06/29 00:11:14;;;;;;;29.90;24.58;;;19.00;99.90;;;;;;5016814;28;20038;-84
2023/06/29 00:13:43;;;;;;;30.92;23.95;;;19.00;99.90;;;;;;5000431;28;20449;-85
2023/06/29 00:16:42;;;;;;;30.65;25.38;;;19.00;99.90;;;;;;4999393;28;20060;-85
2023/06/29 00:20:00;;;;;;;28.25;25.08;;;19.00;99.90;;;;;;5026062;28;20120;-86
2023/06/29 00:23:24;;;;;;;34.55;24.92;;;19.00;99.90;;;;;;4999838;28;20412;-86
2023/06/29 00:27:15;;;;;;;31.40;24.63;;;18.90;99.90;;;;;;5003524;28;20104;-85
2023/06/29 00:30:49;;;;;;;31.15;23.83;;;19.00;99.90;;;;;;4973456;28;20042;-86
2023/06/29 00:34:08;;;;;;;33.13;25.00;;;18.90;99.90;;;;;;4888821;29;20108;-85
2023/06/29 00:37:43;;;;;;;31.05;24.17;;;18.90;99.90;;;;;;4909274;29;20103;-85
2023/06/29 00:40:39;;;;;;;34.28;25.33;;;18.80;99.90;;;;;;4930274;28;20044;-85
2023/06/29 00:43:28;;;;;;;34.35;24.73;;;18.90;99.90;;;;;;4969642;28;20049;-85
2023/06/29 00:47:06;;;;;;;27.80;23.92;;;18.80;99.90;;;;;;4992303;28;20049;-85
2023/06/29 00:49:54;;;;;;;29.88;26.10;;;18.90;99.90;;;;;;5008091;28;20518;-85
2023/06/29 00:53:33;;;;;;;30.73;26.33;;;18.80;99.90;;;;;;5009247;28;20045;-85
2023/06/29 00:56:49;;;;;;;34.72;26.30;;;18.80;99.90;;;;;;5014505;28;20098;-85
2023/06/29 01:00:18;;;;;;;29.27;25.50;;;18.80;99.90;;;;;;4989799;28;20085;-85
2023/06/29 01:03:20;;;;;;;31.50;24.73;;;18.80;99.90;;;;;;4929078;29;20061;-85
2023/06/29 01:06:44;;;;;;;31.60;25.48;;;18.80;99.90;;;;;;4926000;29;20062;-85
2023/06/29 01:09:47;;;;;;;29.67;26.50;;;18.80;99.90;;;;;;5009749;28;20058;-85
2023/06/29 01:13:30;;;;;;;28.60;25.50;;;18.80;99.90;;;;;;5010253;28;20160;-85
2023/06/29 01:16:42;;;;;;;31.70;26.23;;;18.80;99.90;;;;;;4984180;28;20046;-85
2023/06/29 01:22:37;;;;;;;28.83;24.85;;;18.70;99.90;;;;;;4987098;28;20065;-85
2023/06/29 01:25:32;;;;;;;29.65;25.63;;;18.80;99.90;;;;;;4957617;28;20037;-85
2023/06/29 01:29:31;;;;;;;31.20;25.45;;;18.80;99.90;;;;;;4955789;28;20073;-85
2023/06/29 01:32:07;;;;;;;32.38;25.38;;;18.80;99.90;;;;;;4941765;29;20082;-85
2023/06/29 01:35:43;;;;;;;29.77;25.60;;;18.90;99.90;;;;;;4941524;28;20083;-85
2023/06/29 01:39:32;;;;;;;32.38;26.17;;;18.80;99.90;;;;;;4941154;29;20107;-85
2023/06/29 01:42:47;;;;;;;29.02;25.85;;;18.70;99.90;;;;;;4903830;29;20474;-85
2023/06/29 01:45:42;;;;;;;31.65;25.15;;;18.80;99.90;;;;;;4924034;29;20595;-85
2023/06/29 01:48:51;;;;;;;28.38;25.30;;;18.60;99.90;;;;;;4939581;28;20039;-85
2023/06/29 01:52:13;;;;;;;26.98;24.17;;;18.70;99.90;;;;;;4926221;28;20423;-85
2023/06/29 01:55:32;;;;;;;29.90;24.98;;;18.80;99.90;;;;;;4961726;28;20125;-85
2023/06/29 01:59:03;;;;;;;31.52;24.58;;;18.70;99.90;;;;;;4906543;29;20047;-85
2023/06/29 02:02:13;;;;;;;29.25;24.67;;;18.80;99.90;;;;;;4963147;28;20049;-85
2023/06/29 02:04:44;;;;;;;30.30;24.83;;;18.80;99.90;;;;;;4942980;28;20047;-85
2023/06/29 02:07:16;;;;;;;30.88;25.70;;;18.70;99.90;;;;;;4948775;28;20043;-85
2023/06/29 02:10:11;;;;;;;31.33;24.80;;;18.70;99.90;;;;;;4955787;28;20129;-85
2023/06/29 02:14:07;;;;;;;29.40;24.23;;;18.70;99.90;;;;;;4966304;28;20038;-85
2023/06/29 02:17:30;;;;;;;28.98;24.27;;;18.60;99.90;;;;;;4977139;28;20049;-84
2023/06/29 02:19:58;;;;;;;28.38;24.20;;;18.70;99.90;;;;;;5015476;28;20056;-85
2023/06/29 02:22:53;;;;;;;28.40;24.67;;;18.70;99.90;;;;;;5018231;28;20042;-85
2023/06/29 02:25:22;;;;;;;28.57;25.57;;;18.80;99.90;;;;;;4991427;28;20199;-84
2023/06/29 02:27:47;;;;;;;28.73;25.50;;;18.70;99.90;;;;;;5023339;28;20309;-85
2023/06/29 02:30:13;;;;;;;25.70;23.10;;;18.70;99.90;;;;;;4989122;28;20091;-84
2023/06/29 02:32:39;;;;;;;25.83;22.95;;;18.70;99.90;;;;;;4990263;28;20034;-84
2023/06/29 02:35:06;;;;;;;29.45;24.88;;;18.60;99.90;;;;;;5012003;28;20056;-84
2023/06/29 02:37:31;;;;;;;27.00;24.10;;;18.70;99.90;;;;;;5012993;28;20042;-84
2023/06/29 02:39:59;;;;;;;28.48;23.48;;;19.10;99.90;;;;;;5014766;28;20619;-85
2023/06/29 02:42:25;;;;;;;26.65;23.50;;;18.70;99.90;;;;;;4998863;28;20038;-85
2023/06/29 02:44:51;;;;;;;25.90;23.05;;;18.80;99.90;;;;;;5001528;28;20033;-85
2023/06/29 02:47:16;;;;;;;27.27;24.45;;;18.70;99.90;;;;;;5018368;28;20049;-85
2023/06/29 02:49:42;;;;;;;33.65;24.92;;;18.70;99.90;;;;;;4991928;28;20037;-85
2023/06/29 02:52:07;;;;;;;28.25;24.50;;;18.70;99.90;;;;;;5006361;28;20396;-85
2023/06/29 02:54:33;;;;;;;35.05;25.55;;;18.70;99.90;;;;;;5009629;28;20037;-85
2023/06/29 02:56:58;;;;;;;28.95;25.50;;;19.20;99.90;;;;;;5007371;28;20053;-85
2023/06/29 02:59:24;;;;;;;28.20;23.60;;;18.60;99.90;;;;;;5013629;28;20519;-85
2023/06/29 03:01:51;;;;;;;33.33;26.05;;;18.70;99.90;;;;;;5014873;28;20038;-85
2023/06/29 03:04:16;;;;;;;27.90;24.60;;;18.60;99.90;;;;;;4993047;28;20130;-85
2023/06/29 03:06:42;;;;;;;30.73;26.08;;;18.60;99.90;;;;;;4995488;28;20034;-85
2023/06/29 03:09:07;;;;;;;33.03;27.25;;;18.70;99.90;;;;;;5018544;28;20087;-85
2023/06/29 03:11:36;;;;;;;34.65;26.45;;;18.60;99.90;;;;;;4997697;28;20050;-84
2023/06/29 03:14:01;;;;;;;31.40;25.77;;;18.70;99.90;;;;;;5010887;28;20033;-85
2023/06/29 03:16:27;;;;;;;32.85;27.73;;;18.80;99.90;;;;;;5017712;28;20550;-84
2023/06/29 03:18:53;;;;;;;29.50;25.83;;;18.70;99.90;;;;;;4996275;28;20080;-85
2023/06/29 03:21:19;;;;;;;29.40;26.27;;;18.80;99.90;;;;;;5012157;28;20072;-85
2023/06/29 03:23:46;;;;;;;32.25;26.52;;;18.70;99.90;;;;;;5016941;28;20171;-85
2023/06/29 03:26:15;;;;;;;27.85;24.98;;;18.50;99.90;;;;;;4996242;28;20767;-85
2023/06/29 03:28:40;;;;;;;30.98;25.30;;;18.70;99.90;;;;;;5010606;28;20042;-85
2023/06/29 03:31:06;;;;;;;28.65;25.10;;;18.70;99.90;;;;;;4995793;28;20045;-85
2023/06/29 03:33:31;;;;;;;28.50;25.48;;;18.70;99.90;;;;;;5015865;28;20389;-85
2023/06/29 03:35:57;;;;;;;30.20;26.48;;;18.70;99.90;;;;;;5019575;28;20117;-85
2023/06/29 03:38:22;;;;;;;29.77;26.30;;;18.70;99.90;;;;;;5016048;28;20496;-85
2023/06/29 03:40:48;;;;;;;28.30;24.73;;;18.70;99.90;;;;;;4995868;28;20556;-85
2023/06/29 03:43:14;;;;;;;28.38;24.55;;;18.80;99.90;;;;;;5016558;28;20037;-85
2023/06/29 03:45:39;;;;;;;26.50;23.67;;;18.70;99.90;;;;;;5009280;28;20030;-86
2023/06/29 03:48:05;;;;;;;28.85;24.85;;;18.80;99.90;;;;;;5003882;28;20520;-85
2023/06/29 03:50:30;;;;;;;29.38;23.95;;;18.70;99.90;;;;;;5016394;28;20041;-86
2023/06/29 03:52:56;;;;;;;26.15;23.20;;;18.90;99.90;;;;;;4998942;28;20538;-85
2023/06/29 03:55:24;;;;;;;26.63;23.65;;;18.80;99.90;;;;;;4995748;28;20046;-85
2023/06/29 03:57:50;;;;;;;26.52;22.10;;;19.20;99.90;;;;;;4997105;28;20045;-85
2023/06/29 04:00:16;;;;;;;25.88;23.20;;;18.90;99.90;;;;;;5015084;28;20174;-85
2023/06/29 04:02:41;;;;;;;26.67;22.00;;;18.90;99.90;;;;;;5006069;28;20081;-85
2023/06/29 04:05:08;;;;;;;25.63;22.80;;;18.90;99.90;;;;;;4995688;28;20049;-85
2023/06/29 04:07:34;;;;;;;26.55;23.02;;;18.90;99.90;;;;;;5010557;28;20415;-84
2023/06/29 04:10:00;;;;;;;24.30;21.80;;;19.20;99.90;;;;;;5009557;28;20117;-85
2023/06/29 04:12:25;;;;;;;24.65;22.05;;;18.90;99.90;;;;;;4993371;28;20044;-85
2023/06/29 04:14:51;;;;;;;25.77;22.58;;;19.00;99.90;;;;;;5010574;28;20038;-85
2023/06/29 04:17:16;;;;;;;25.90;23.17;;;18.80;99.90;;;;;;5011063;28;20042;-84
2023/06/29 04:19:42;;;;;;;25.13;22.48;;;19.00;99.90;;;;;;5013969;28;20033;-85
2023/06/29 04:22:08;;;;;;;25.52;22.40;;;19.20;99.90;;;;;;5013916;28;20044;-85
2023/06/29 04:24:33;;;;;;;27.08;21.95;;;19.10;99.90;;;;;;5012844;28;20377;-85
2023/06/29 04:26:59;;;;;;;25.40;22.70;;;19.00;99.90;;;;;;5016139;28;20033;-84
2023/06/29 04:29:25;;;;;;;25.42;22.58;;;19.00;99.90;;;;;;4994485;28;20040;-85
2023/06/29 04:31:51;;;;;;;25.00;22.50;;;19.00;99.90;;;;;;5012621;28;20460;-85
2023/06/29 04:34:17;;;;;;;25.63;22.83;;;19.20;99.90;;;;;;5013182;28;20057;-85
2023/06/29 04:36:46;;;;;;;27.08;24.13;;;19.20;99.90;;;;;;5009248;28;20096;-84
2023/06/29 04:39:13;;;;;;;24.90;22.38;;;19.20;99.90;;;;;;5008785;28;20038;-84
2023/06/29 04:41:40;;;;;;;27.30;24.48;;;19.10;99.90;;;;;;5011346;28;20045;-85
2023/06/29 04:44:08;;;;;;;25.35;21.95;;;19.10;99.90;;;;;;5010764;28;20144;-84
2023/06/29 04:46:40;;;;;;;27.25;22.55;;;19.20;99.90;;;;;;5009182;28;20460;-84
2023/06/29 04:49:31;;;;;;;31.95;24.40;;;19.20;99.90;;;;;;5014897;28;20400;-86
2023/06/29 04:52:22;;;;;;;26.73;23.23;;;19.30;99.90;;;;;;5013116;28;20085;-82
2023/06/29 04:54:50;;;;;;;25.85;23.25;;;19.30;99.90;;;;;;5017118;28;20068;-83
2023/06/29 04:57:15;;;;;;;25.40;22.73;;;19.40;99.90;;;;;;5001408;28;20046;-81
2023/06/29 04:59:41;;;;;;;27.73;23.73;;;19.40;99.90;;;;;;5017157;28;20042;-83
2023/06/29 05:02:06;;;;;;;34.40;24.35;;;19.50;99.90;;;;;;5007138;28;20095;-84
2023/06/29 05:04:32;;;;;;;31.88;23.35;;;19.50;99.90;;;;;;5012359;28;20034;-84
2023/06/29 05:06:58;;;;;;;30.33;23.27;;;19.60;99.90;;;;;;5015282;28;20042;-82
2023/06/29 05:09:23;;;;;;;29.40;25.23;;;19.60;99.90;;;;;;5012502;28;20373;-82
2023/06/29 05:11:49;;;;;;;26.85;23.77;;;19.60;99.90;;;;;;5013774;28;20033;-83
2023/06/29 05:14:14;;;;;;;25.38;22.58;;;19.70;99.90;;;;;;5014408;28;20043;-83
2023/06/29 05:16:40;;;;;;;25.75;22.98;;;19.70;99.90;;;;;;5015316;28;20046;-82
2023/06/29 05:19:06;;;;;;;27.85;24.15;;;19.80;99.90;;;;;;5012057;28;20076;-81
2023/06/29 05:21:32;;;;;;;34.50;23.88;;;19.70;99.90;;;;;;5009566;28;20053;-83
2023/06/29 05:23:59;;;;;;;32.85;24.08;;;19.80;99.90;;;;;;4996427;28;20041;-83
2023/06/29 05:26:32;;;;;;;26.20;23.27;;;19.80;99.90;;;;;;5011506;28;20082;-82
2023/06/29 05:29:00;;;;;;;24.33;21.63;;;19.90;99.90;;;;;;4983637;28;20045;-82
2023/06/29 05:31:25;;;;;;;25.58;22.88;;;19.90;99.90;;;;;;5019789;28;20053;-82
2023/06/29 05:33:51;;;;;;;27.63;23.75;;;20.00;99.90;;;;;;5018685;28;20065;-81
2023/06/29 05:36:16;;;;;;;24.27;21.67;;;20.00;99.90;;;;;;5012362;28;20042;-81
2023/06/29 05:38:42;;;;;;;26.27;22.35;;;20.00;99.90;;;;;;4992828;28;20045;-81
2023/06/29 05:41:07;;;;;;;24.58;21.38;;;20.10;99.90;;;;;;5013584;28;20038;-82
2023/06/29 05:43:33;;;;;;;25.02;22.05;;;20.10;99.90;;;;;;5016864;28;20072;-81
2023/06/29 05:46:02;;;;;;;25.60;21.63;;;20.20;99.90;;;;;;5021588;28;20038;-81
2023/06/29 05:48:28;;;;;;;23.40;21.08;;;20.20;99.90;;;;;;5006621;28;20050;-81
2023/06/29 05:50:53;;;;;;;23.90;20.92;;;20.30;99.90;;;;;;5016753;28;20428;-80
2023/06/29 05:53:19;;;;;;;26.20;20.60;;;20.30;99.90;;;;;;5014681;28;20037;-82
2023/06/29 05:55:44;;;;;;;24.10;21.27;;;20.40;99.90;;;;;;4996151;28;20066;-82
2023/06/29 05:58:10;;;;;;;24.40;21.95;;;20.40;99.90;;;;;;5017363;28;20524;-82
2023/06/29 06:00:35;;;;;;;24.90;21.42;;;20.40;99.90;;;;;;5012565;28;20386;-82
2023/06/29 06:03:01;;;;;;;23.83;21.35;;;20.50;99.90;;;;;;5014715;28;20393;-81
2023/06/29 06:05:27;;;;;;;26.00;21.45;;;20.50;99.90;;;;;;5012963;28;20048;-82
2023/06/29 06:08:10;;;;;;;29.60;22.60;;;20.50;99.90;;;;;;5013337;28;20045;-82
2023/06/29 06:10:36;;;;;;;27.33;22.67;;;20.50;99.90;;;;;;5013376;28;20117;-81
2023/06/29 06:13:02;;;;;;;23.23;20.48;;;20.50;99.90;;;;;;5010158;28;20151;-81
2023/06/29 06:15:28;;;;;;;23.38;20.38;;;20.60;99.90;;;;;;5023677;28;20034;-80
2023/06/29 06:17:53;;;;;;;24.17;21.50;;;20.60;99.90;;;;;;5026381;28;20400;-80
2023/06/29 06:20:19;;;;;;;27.23;20.50;;;20.60;99.90;;;;;;5019900;28;20034;-83
2023/06/29 06:22:45;;;;;;;28.83;21.25;;;20.60;99.90;;;;;;5020780;28;20037;-83
2023/06/29 06:25:11;;;;;;;24.42;21.13;;;20.60;99.90;;;;;;5019447;28;20046;-80
2023/06/29 06:27:37;;;;;;;23.27;20.95;;;20.60;99.90;;;;;;5017116;28;20046;-81
2023/06/29 06:30:04;;;;;;;28.02;20.90;;;20.60;99.90;;;;;;5017327;28;20113;-81
2023/06/29 06:32:30;;;;;;;23.75;20.90;;;20.60;99.90;;;;;;5014637;28;20100;-81
2023/06/29 06:34:55;;;;;;;22.83;20.40;;;20.60;99.90;;;;;;5022385;28;20392;-80
2023/06/29 06:37:21;;;;;;;25.00;22.30;;;20.60;99.90;;;;;;5019878;28;20048;-81
2023/06/29 06:39:46;;;;;;;24.23;21.42;;;20.60;99.90;;;;;;5017256;28;20041;-81
2023/06/29 06:42:12;;;;;;;24.20;21.27;;;20.70;99.90;;;;;;5024097;28;20045;-82
2023/06/29 06:44:51;;;;;;;28.45;22.27;;;20.70;99.90;;;;;;5017571;28;20042;-81
2023/06/29 06:47:17;;;;;;;23.80;21.38;;;20.70;99.90;;;;;;5019036;28;20034;-80
2023/06/29 06:49:42;;;;;;;26.02;22.58;;;20.70;99.90;;;;;;5015853;28;20108;-82
2023/06/29 06:52:08;;;;;;;24.33;21.38;;;20.70;99.90;;;;;;5017591;28;20034;-80
2023/06/29 06:54:33;;;;;;;39.92;21.05;;;20.70;99.90;;;;;;5011005;28;20121;-81
2023/06/29 06:56:59;;;;;;;26.60;21.95;;;20.60;99.90;;;;;;5013237;28;20132;-81
2023/06/29 06:59:24;;;;;;;26.40;21.67;;;20.60;99.90;;;;;;5017512;28;20124;-81
2023/06/29 07:01:50;;;;;;;27.08;21.80;;;20.60;99.90;;;;;;5019362;28;20044;-81
2023/06/29 07:04:15;;;;;;;24.42;21.45;;;20.50;99.90;;;;;;5015774;28;20038;-80
2023/06/29 07:06:41;;;;;;;25.77;21.33;;;20.50;99.90;;;;;;5018046;28;20062;-80
2023/06/29 07:09:07;;;;;;;23.50;20.38;;;20.50;99.90;;;;;;5011197;28;20038;-80
2023/06/29 07:11:34;;;;;;;24.42;21.88;;;20.50;99.90;;;;;;5019283;28;20034;-80
2023/06/29 07:14:00;;;;;;;24.33;21.70;;;20.40;99.90;;;;;;5017638;28;20068;-81
2023/06/29 07:16:25;;;;;;;27.30;23.23;;;20.40;99.90;;;;;;5012075;28;20501;-81
2023/06/29 07:19:06;;;;;;;26.17;22.48;;;20.30;99.90;;;;;;5015825;28;20073;-80
2023/06/29 07:21:31;;;;;;;25.13;22.48;;;20.30;99.90;;;;;;5017448;28;20538;-80
2023/06/29 07:23:57;;;;;;;27.75;22.83;;;20.30;99.90;;;;;;5017155;28;20046;-81
2023/06/29 07:26:23;;;;;;;34.15;23.83;;;20.30;99.90;;;;;;5018353;28;20057;-83
2023/06/29 07:28:48;;;;;;;25.85;23.08;;;20.30;99.90;;;;;;5021924;28;20553;-80
2023/06/29 07:31:14;;;;;;;25.15;22.35;;;20.30;99.90;;;;;;5017005;28;20065;-81
2023/06/29 07:33:41;;;;;;;26.27;22.50;;;20.30;99.90;;;;;;5026985;28;20638;-82
2023/06/29 07:36:07;;;;;;;29.58;24.52;;;20.40;99.90;;;;;;5017221;28;20094;-80
2023/06/29 07:38:33;;;;;;;32.13;23.40;;;20.40;99.90;;;;;;5020258;28;20029;-82
2023/06/29 07:40:59;;;;;;;26.73;23.92;;;20.50;99.90;;;;;;5021526;28;20468;-81
2023/06/29 07:43:24;;;;;;;26.02;22.95;;;20.50;99.90;;;;;;5023588;28;20164;-83
2023/06/29 07:45:50;;;;;;;26.92;23.27;;;20.50;99.90;;;;;;5010066;28;20432;-81
2023/06/29 07:48:16;;;;;;;26.08;23.35;;;20.60;99.90;;;;;;5020506;28;20045;-81
2023/06/29 07:50:42;;;;;;;28.65;22.65;;;20.60;99.90;;;;;;5028520;28;20041;-80
2023/06/29 07:53:08;;;;;;;27.00;22.92;;;20.70;99.90;;;;;;5021612;28;20045;-80
2023/06/29 07:55:34;;;;;;;24.88;22.40;;;20.70;99.90;;;;;;5023533;28;20041;-80
2023/06/29 07:58:00;;;;;;;49.85;22.60;;;20.70;99.90;;;;;;5016304;28;20048;-81
2023/06/29 08:00:25;;;;;;;49.10;24.85;;;20.70;99.90;;;;;;5024062;28;20038;-81
2023/06/29 08:02:51;;;;;;;27.52;24.60;;;20.70;99.90;;;;;;5013771;28;20060;-81
2023/06/29 08:05:17;;;;;;;27.73;23.38;;;20.70;99.90;;;;;;5025190;28;20570;-81
2023/06/29 08:07:43;;;;;;;29.95;25.77;;;20.80;99.90;;;;;;5029333;28;20046;-81
2023/06/29 08:10:09;;;;;;;31.10;26.08;;;20.80;99.90;;;;;;5026859;28;20042;-81
2023/06/29 08:12:34;;;;;;;30.30;25.83;;;20.80;99.90;;;;;;5026285;28;20045;-81
2023/06/29 08:15:00;;;;;;;28.35;25.33;;;20.80;99.90;;;;;;5019087;28;20045;-81
2023/06/29 08:17:26;;;;;;;30.33;25.75;;;20.90;99.90;;;;;;5027964;28;20056;-81
2023/06/29 08:19:51;;;;;;;33.63;28.20;;;20.90;99.90;;;;;;5026987;28;20034;-81
2023/06/29 08:22:17;;;;;;;31.65;27.48;;;21.00;99.90;;;;;;5029302;28;20076;-81
2023/06/29 08:24:42;;;;;;;33.70;27.95;;;21.20;99.90;;;;;;5028486;28;20500;-82
2023/06/29 08:27:08;;;;;;;36.33;30.13;;;21.30;99.90;;;;;;5023980;28;20055;-82
2023/06/29 08:29:34;;;;;;;33.22;28.88;;;21.40;99.90;;;;;;5026990;28;20037;-83
2023/06/29 08:32:00;;;;;;;33.88;28.40;;;21.60;99.90;;;;;;5029459;28;20064;-81
2023/06/29 08:34:26;;;;;;;32.72;29.33;;;21.70;99.90;;;;;;5026411;28;20120;-81
2023/06/29 08:36:51;;;;;;;34.60;28.63;;;21.80;99.90;;;;;;5008150;28;20624;-81
2023/06/29 08:39:17;;;;;;;31.35;28.20;;;21.90;99.90;;;;;;5023053;28;20112;-82
2023/06/29 08:41:43;;;;;;;31.67;28.25;;;21.80;99.90;;;;;;5007951;28;20072;-83
2023/06/29 08:44:09;;;;;;;31.52;28.08;;;21.90;99.90;;;;;;5023949;28;20038;-82
2023/06/29 08:46:37;;;;;;;29.30;26.40;;;22.00;99.90;;;;;;5020946;28;20046;-82
2023/06/29 08:49:06;;;;;;;39.28;27.90;;;22.00;99.90;;;;;;5030049;28;20038;-84
2023/06/29 08:51:34;;;;;;;31.02;26.55;;;22.10;99.90;;;;;;5023464;28;20045;-82
2023/06/29 08:54:01;;;;;;;31.95;26.30;;;22.10;99.90;;;;;;5021785;28;20048;-82
2023/06/29 08:56:28;;;;;;;29.00;25.08;;;22.10;99.90;;;;;;5022490;28;20088;-81
2023/06/29 08:58:55;;;;;;;30.10;26.90;;;22.20;99.90;;;;;;5024940;28;20060;-82
2023/06/29 09:01:22;;;;;;;30.10;26.75;;;22.20;99.90;;;;;;5001284;28;20063;-82
2023/06/29 09:03:50;;;;;;;29.27;26.25;;;22.20;99.90;;;;;;5015372;28;20165;-81
2023/06/29 09:06:15;;;;;;;29.38;26.27;;;22.20;99.90;;;;;;5022831;28;20041;-79
2023/06/29 09:08:41;;;;;;;28.73;25.70;;;22.10;99.90;;;;;;5027200;28;20220;-82
2023/06/29 09:11:07;;;;;;;31.45;27.45;;;22.10;99.90;;;;;;5023057;28;20064;-81
2023/06/29 09:13:35;;;;;;;35.08;26.80;;;22.10;99.90;;;;;;5025906;28;20645;-82
2023/06/29 09:16:01;;;;;;;32.25;26.90;;;22.10;99.90;;;;;;5022980;28;20069;-81
2023/06/29 09:18:28;;;;;;;28.02;25.02;;;22.00;99.90;;;;;;5022124;28;20084;-81
2023/06/29 09:20:57;;;;;;;31.75;26.63;;;22.10;99.90;;;;;;5022360;28;20064;-82
2023/06/29 09:23:26;;;;;;;29.20;26.17;;;22.00;99.90;;;;;;5022467;28;20510;-80
2023/06/29 09:25:55;;;;;;;31.17;26.35;;;21.90;99.90;;;;;;5022918;28;20045;-81
2023/06/29 09:28:21;;;;;;;29.40;26.38;;;22.00;99.90;;;;;;5011037;28;20053;-80
2023/06/29 09:30:49;;;;;;;31.88;28.52;;;22.00;99.90;;;;;;5020676;28;20041;-81
2023/06/29 09:33:15;;;;;;;31.50;28.23;;;22.00;99.90;;;;;;5018034;28;20420;-82
2023/06/29 09:40:03;;;;;;;27.80;24.45;;;22.20;99.90;;;;;;4978351;28;20550;-80
2023/06/29 09:42:29;;;;;;;25.55;22.95;;;22.20;99.90;;;;;;4965866;28;20117;-81
2023/06/29 09:45:01;;;;;;;25.27;22.65;;;22.20;99.90;;;;;;4990881;28;20561;-82
2023/06/29 09:47:26;;;;;;;23.63;21.20;;;22.10;99.90;;;;;;5014064;28;20053;-80
2023/06/29 09:49:52;;;;;;;25.20;20.98;;;22.00;99.90;;;;;;5016368;28;20041;-81
2023/06/29 09:52:18;;;;;;;22.60;20.17;;;21.90;99.90;;;;;;5020108;28;20111;-82
2023/06/29 09:54:44;;;;;;;22.90;20.67;;;21.90;99.90;;;;;;5025178;28;20045;-81
2023/06/29 09:57:11;;;;;;;22.38;20.17;;;21.80;99.90;;;;;;5016848;28;20060;-82
2023/06/29 09:59:41;;;;;;;24.60;22.08;;;21.80;99.90;;;;;;5022931;28;20064;-80
2023/06/29 10:02:08;;;;;;;29.75;23.10;;;21.70;99.90;;;;;;5017957;28;20072;-81
2023/06/29 10:04:35;;;;;;;24.80;22.20;;;21.60;99.90;;;;;;5015969;28;20412;-83
2023/06/29 10:07:14;;;;;;;23.73;21.40;;;21.70;99.90;;;;;;5013430;28;20045;-81
2023/06/29 10:09:43;;;;;;;26.92;23.02;;;21.60;99.90;;;;;;5020184;28;20519;-81
2023/06/29 10:12:10;;;;;;;23.80;21.38;;;21.60;99.90;;;;;;5023918;28;20396;-81
2023/06/29 10:14:46;;;;;;;24.65;22.15;;;21.60;99.90;;;;;;5017034;28;20041;-83
2023/06/29 10:17:16;;;;;;;24.83;22.30;;;21.60;99.90;;;;;;5021387;28;20042;-81
2023/06/29 10:19:43;;;;;;;25.65;22.77;;;21.70;99.90;;;;;;5016769;28;20101;-81
2023/06/29 10:22:13;;;;;;;25.10;22.60;;;21.70;99.90;;;;;;5019672;28;20065;-81
2023/06/29 10:24:51;;;;;;;27.73;24.15;;;21.80;99.90;;;;;;5013430;28;20600;-81
2023/06/29 10:27:18;;;;;;;26.60;23.48;;;21.80;99.90;;;;;;5013895;28;20045;-82
2023/06/29 10:29:45;;;;;;;29.25;24.08;;;21.90;99.90;;;;;;5018192;28;20038;-81
2023/06/29 10:32:29;;;;;;;27.55;24.38;;;22.00;99.90;;;;;;5019291;28;20038;-82
2023/06/29 10:35:07;;;;;;;31.17;24.55;;;22.10;99.90;;;;;;5013031;28;20087;-81
2023/06/29 10:37:37;;;;;;;26.77;23.90;;;22.20;99.90;;;;;;4998872;28;20516;-82
2023/06/29 10:40:09;;;;;;;29.95;26.73;;;22.00;99.90;;;;;;5017889;28;20038;-80
2023/06/29 10:42:38;;;;;;;28.70;25.80;;;22.30;99.90;;;;;;5014436;28;20100;-81
2023/06/29 10:45:16;;;;;;;27.73;24.83;;;22.40;99.90;;;;;;5009829;28;20081;-80
2023/06/29 10:47:41;;;;;;;26.58;23.80;;;22.40;99.90;;;;;;5016755;28;20052;-80
2023/06/29 10:50:13;;;;;;;28.50;23.73;;;22.50;99.90;;;;;;5017279;28;20041;-80
2023/06/29 10:52:42;;;;;;;27.27;24.05;;;22.60;99.90;;;;;;5019949;28;20046;-80
2023/06/29 10:55:14;;;;;;;29.58;23.63;;;22.60;99.90;;;;;;5005733;28;20123;-81
2023/06/29 10:57:44;;;;;;;29.50;24.00;;;22.60;99.90;;;;;;5017238;28;20104;-80
2023/06/29 11:00:10;;;;;;;24.92;22.52;;;22.60;99.90;;;;;;5016583;28;20034;-80
2023/06/29 11:02:37;;;;;;;24.52;21.85;;;22.60;99.90;;;;;;5017618;28;20061;-80
2023/06/29 11:05:03;;;;;;;24.02;21.65;;;22.60;99.90;;;;;;5014707;28;20047;-80
2023/06/29 11:07:30;;;;;;;25.58;22.77;;;22.70;99.90;;;;;;5012685;28;20046;-80
2023/06/29 11:10:02;;;;;;;25.58;22.90;;;22.60;99.90;;;;;;5012232;28;20042;-80
2023/06/29 11:12:28;;;;;;;25.80;23.20;;;22.50;99.90;;;;;;5013253;28;21203;-81
2023/06/29 11:14:57;;;;;;;26.73;23.15;;;22.50;99.90;;;;;;5015588;28;20046;-80
2023/06/29 11:17:23;;;;;;;27.30;24.38;;;22.60;99.90;;;;;;5014635;28;20064;-81
2023/06/29 11:19:50;;;;;;;26.85;23.98;;;22.70;99.90;;;;;;5018202;28;20045;-81
2023/06/29 11:22:21;;;;;;;26.50;23.88;;;22.90;99.90;;;;;;5021586;28;20397;-81
2023/06/29 11:24:47;;;;;;;25.90;23.42;;;23.00;99.90;;;;;;5021716;28;20038;-82
2023/06/29 11:27:19;;;;;;;28.80;25.98;;;23.40;99.90;;;;;;5014991;28;20499;-81
2023/06/29 11:29:44;;;;;;;30.90;25.63;;;23.20;99.90;;;;;;5014075;28;20041;-80
2023/06/29 11:32:12;;;;;;;28.85;25.88;;;23.30;99.90;;;;;;5016316;28;20735;-82
2023/06/29 11:34:38;;;;;;;29.10;26.08;;;23.30;99.90;;;;;;5024839;28;20454;-81
2023/06/29 11:37:04;;;;;;;30.55;27.25;;;23.40;99.90;;;;;;5013042;28;20046;-81
2023/06/29 11:39:30;;;;;;;28.17;25.35;;;23.60;99.90;;;;;;5017403;28;20443;-82
2023/06/29 11:41:56;;;;;;;29.02;26.10;;;23.60;99.90;;;;;;5006228;28;20048;-81
2023/06/29 11:44:25;;;;;;;28.38;25.52;;;23.70;99.90;;;;;;5020542;28;20687;-81
2023/06/29 11:46:56;;;;;;;27.65;24.92;;;23.90;99.90;;;;;;5019772;28;20133;-81
2023/06/29 11:49:22;;;;;;;30.10;27.02;;;24.20;99.90;;;;;;5026286;28;20069;-81
2023/06/29 11:51:49;;;;;;;26.48;23.67;;;24.40;99.90;;;;;;5018507;28;20060;-82
2023/06/29 11:54:15;;;;;;;29.15;25.63;;;24.70;99.90;;;;;;5016066;28;20113;-81
2023/06/29 11:56:42;;;;;;;27.00;24.50;;;24.90;99.90;;;;;;5017648;28;20077;-81
2023/06/29 11:59:08;;;;;;;27.77;25.15;;;24.90;99.90;;;;;;5017295;28;20041;-82
2023/06/29 12:01:35;;;;;;;25.30;22.65;;;25.10;99.90;;;;;;5019194;28;20056;-82
2023/06/29 12:04:03;;;;;;;26.95;24.10;;;25.00;99.90;;;;;;5020510;28;20045;-81
2023/06/29 12:06:28;;;;;;;27.58;24.85;;;25.20;99.90;;;;;;5018190;28;20046;-82
2023/06/29 12:08:54;;;;;;;27.08;23.98;;;25.30;99.90;;;;;;5025016;28;20133;-82
2023/06/29 12:11:19;;;;;;;24.45;22.13;;;25.60;99.90;;;;;;5021430;28;20045;-81
2023/06/29 12:13:46;;;;;;;24.20;21.83;;;25.60;99.90;;;;;;5015722;28;20041;-82
2023/06/29 12:16:11;;;;;;;23.98;21.25;;;25.90;99.90;;;;;;5017021;28;20064;-81
2023/06/29 12:18:37;;;;;;;25.27;21.67;;;25.90;99.90;;;;;;4998651;28;20783;-81
2023/06/29 12:21:03;;;;;;;24.50;20.75;;;26.00;99.90;;;;;;5023066;28;20041;-82
2023/06/29 12:23:29;;;;;;;29.35;23.13;;;26.00;99.90;;;;;;5025476;28;20037;-81
2023/06/29 12:25:55;;;;;;;25.05;22.10;;;26.00;99.90;;;;;;5019102;28;20038;-82
2023/06/29 12:28:21;;;;;;;20.92;18.75;;;26.10;99.90;;;;;;5018752;28;20046;-81
2023/06/29 12:30:47;;;;;;;22.45;19.27;;;26.10;99.90;;;;;;5017063;28;20049;-83
2023/06/29 12:33:13;;;;;;;24.98;19.67;;;26.10;99.90;;;;;;5014846;28;20042;-80
2023/06/29 12:35:39;;;;;;;24.42;21.73;;;26.00;99.90;;;;;;5017113;28;20041;-81
2023/06/29 12:38:05;;;;;;;22.75;20.58;;;25.70;99.90;;;;;;5020614;28;20041;-81
2023/06/29 12:40:31;;;;;;;23.83;21.42;;;25.50;99.90;;;;;;5017126;28;20112;-82
2023/06/29 12:42:59;;;;;;;24.60;21.90;;;25.30;99.90;;;;;;5020818;28;20041;-80
2023/06/29 12:45:25;;;;;;;36.03;22.65;;;25.10;99.90;;;;;;5017500;28;20140;-82
2023/06/29 12:47:50;;;;;;;27.50;23.77;;;25.10;99.90;;;;;;5012566;28;20124;-80
2023/06/29 12:50:17;;;;;;;37.97;25.23;;;24.80;99.90;;;;;;5020671;28;20038;-81
2023/06/29 12:52:47;;;;;;;34.72;23.17;;;24.80;99.90;;;;;;5018239;28;20034;-81
2023/06/29 12:55:14;;;;;;;25.02;22.52;;;24.70;99.90;;;;;;5016427;28;20397;-81
2023/06/29 12:57:41;;;;;;;26.85;24.13;;;24.90;99.90;;;;;;5014480;28;20401;-82
2023/06/29 13:00:08;;;;;;;23.63;21.33;;;25.00;99.90;;;;;;5018214;28;20092;-81
2023/06/29 13:02:34;;;;;;;24.35;21.02;;;25.10;99.90;;;;;;5016310;28;20128;-81
2023/06/29 13:04:59;;;;;;;23.20;20.98;;;25.00;99.90;;;;;;5014919;28;20034;-81
2023/06/29 13:07:25;;;;;;;23.42;20.92;;;25.00;99.90;;;;;;5016939;28;20400;-81